createdAt,value
2022-08-17T00:01:52.246Z,22.44
2022-08-17T00:04:21.426Z,22.15
2022-08-17T00:06:51.058Z,22.14
2022-08-17T00:09:19.714Z,21.94
2022-08-17T00:12:42.930Z,21.98
2022-08-17T00:14:40.180Z,21.91
2022-08-17T00:17:08.741Z,21.80
2022-08-17T00:19:37.642Z,21.87
2022-08-17T00:22:35.208Z,21.74
2022-08-17T00:24:56.239Z,21.79
2022-08-17T00:27:25.842Z,21.77
2022-08-17T00:29:53.939Z,21.89
2022-08-17T00:33:11.651Z,21.74
2022-08-17T00:35:13.255Z,21.68
2022-08-17T00:37:41.847Z,21.80
2022-08-17T00:40:13.658Z,21.65
2022-08-17T00:42:47.812Z,21.31
2022-08-17T00:45:18.423Z,21.48
2022-08-17T00:47:47.206Z,21.27
2022-08-17T00:50:20.255Z,21.23
2022-08-17T00:52:54.142Z,21.13
2022-08-17T00:55:24.069Z,21.09
2022-08-17T00:58:00.042Z,20.96
2022-08-17T01:00:35.583Z,20.80
2022-08-17T01:03:07.999Z,20.92
2022-08-17T01:05:42.348Z,20.85
2022-08-17T01:08:15.484Z,20.86
2022-08-17T01:11:00.582Z,20.87
2022-08-17T01:13:40.375Z,20.82
2022-08-17T01:16:17.122Z,20.82
2022-08-17T01:18:50.578Z,20.75
2022-08-17T01:21:38.863Z,20.91
2022-08-17T01:24:09.750Z,20.95
2022-08-17T01:26:42.395Z,20.81
2022-08-17T01:29:14.269Z,20.86
2022-08-17T01:31:47.711Z,20.73
2022-08-17T01:34:19.392Z,20.76
2022-08-17T01:36:53.525Z,20.79
2022-08-17T01:39:27.395Z,20.52
2022-08-17T01:42:05.253Z,20.69
2022-08-17T01:44:35.789Z,20.78
2022-08-17T01:47:07.363Z,20.54
2022-08-17T01:49:35.849Z,20.53
2022-08-17T01:52:10.226Z,20.63
2022-08-17T01:54:43.168Z,20.55
2022-08-17T01:57:11.923Z,20.50
2022-08-17T01:59:40.730Z,20.63
2022-08-17T02:02:09.626Z,20.49
2022-08-17T02:04:38.158Z,20.60
2022-08-17T02:07:06.694Z,20.67
2022-08-17T02:09:34.886Z,20.69
2022-08-17T02:12:39.523Z,20.74
2022-08-17T02:15:00.310Z,20.75
2022-08-17T02:17:29.332Z,20.81
2022-08-17T02:19:57.850Z,20.69
2022-08-17T02:22:26.683Z,20.63
2022-08-17T02:25:00.552Z,20.55
2022-08-17T02:27:31.894Z,20.58
2022-08-17T02:30:00.214Z,20.54
2022-08-17T02:32:28.823Z,20.43
2022-08-17T02:34:57.467Z,20.55
2022-08-17T02:37:26.033Z,20.29
2022-08-17T02:39:54.590Z,20.28
2022-08-17T02:42:29.146Z,20.27
2022-08-17T02:45:00.939Z,20.05
2022-08-17T02:47:29.997Z,20.03
2022-08-17T02:49:58.509Z,20.09
2022-08-17T02:52:42.487Z,20.10
2022-08-17T02:55:17.253Z,19.95
2022-08-17T02:57:48.369Z,20.00
2022-08-17T03:00:22.513Z,19.84
2022-08-17T03:02:53.096Z,19.83
2022-08-17T03:05:25.437Z,19.82
2022-08-17T03:07:55.534Z,19.79
2022-08-17T03:10:26.141Z,19.86
2022-08-17T03:12:56.744Z,19.67
2022-08-17T03:15:29.467Z,19.71
2022-08-17T03:18:01.083Z,19.57
2022-08-17T03:20:32.309Z,19.51
2022-08-17T03:23:02.740Z,19.53
2022-08-17T03:25:34.419Z,19.59
2022-08-17T03:28:03.314Z,19.53
2022-08-17T03:30:34.037Z,19.68
2022-08-17T03:33:07.570Z,19.72
2022-08-17T03:35:40.457Z,19.77
2022-08-17T03:38:10.329Z,19.70
2022-08-17T03:40:57.602Z,19.67
2022-08-17T03:43:30.269Z,19.73
2022-08-17T03:46:28.099Z,19.92
2022-08-17T03:49:35.563Z,19.88
2022-08-17T03:52:22.884Z,19.92
2022-08-17T03:55:09.718Z,19.63
2022-08-17T03:57:38.502Z,19.78
2022-08-17T04:00:08.022Z,19.62
2022-08-17T04:02:38.088Z,19.53
2022-08-17T04:05:07.391Z,18.89
2022-08-17T04:07:35.693Z,19.11
2022-08-17T04:10:05.405Z,18.97
2022-08-17T04:12:45.516Z,19.20
2022-08-17T04:15:14.123Z,19.36
2022-08-17T04:17:44.859Z,19.38
2022-08-17T04:20:14.759Z,19.40
2022-08-17T04:22:57.575Z,19.39
2022-08-17T04:25:27.795Z,19.39
2022-08-17T04:27:56.948Z,19.44
2022-08-17T04:30:25.665Z,19.28
2022-08-17T04:33:06.283Z,19.30
2022-08-17T04:35:38.994Z,19.32
2022-08-17T04:38:08.974Z,19.36
2022-08-17T04:40:54.849Z,19.44
2022-08-17T04:43:26.295Z,19.31
2022-08-17T04:45:58.533Z,19.39
2022-08-17T04:48:36.200Z,19.41
2022-08-17T04:51:10.056Z,19.52
2022-08-17T04:53:40.479Z,19.52
2022-08-17T04:56:11.638Z,19.55
2022-08-17T04:58:45.911Z,19.66
2022-08-17T05:01:15.152Z,19.76
2022-08-17T05:03:45.953Z,19.75
2022-08-17T05:06:14.695Z,19.64
2022-08-17T05:08:43.254Z,19.59
2022-08-17T05:11:11.410Z,19.55
2022-08-17T05:13:41.163Z,19.61
2022-08-17T05:16:12.683Z,19.43
2022-08-17T05:18:40.907Z,19.55
2022-08-17T05:21:10.947Z,19.67
2022-08-17T05:23:42.928Z,19.77
2022-08-17T05:26:25.452Z,19.90
2022-08-17T05:28:59.641Z,19.98
2022-08-17T05:31:30.142Z,20.11
2022-08-17T05:33:58.646Z,20.17
2022-08-17T05:36:41.808Z,20.32
2022-08-17T05:39:17.064Z,20.50
2022-08-17T05:41:47.256Z,20.56
2022-08-17T05:44:15.606Z,20.63
2022-08-17T05:46:49.158Z,20.88
2022-08-17T05:49:20.290Z,20.88
2022-08-17T05:52:24.196Z,20.83
2022-08-17T05:55:04.708Z,20.82
2022-08-17T05:57:57.300Z,20.94
2022-08-17T06:00:30.288Z,21.02
2022-08-17T06:03:31.675Z,21.11
2022-08-17T06:06:11.295Z,21.32
2022-08-17T06:08:48.337Z,21.55
2022-08-17T06:11:29.828Z,21.62
2022-08-17T06:14:24.328Z,21.78
2022-08-17T06:17:02.282Z,21.92
2022-08-17T06:19:38.773Z,21.74
2022-08-17T06:22:08.778Z,22.15
2022-08-17T06:24:47.329Z,22.33
2022-08-17T06:27:24.933Z,22.54
2022-08-17T06:30:02.279Z,22.74
2022-08-17T06:32:31.389Z,22.91
2022-08-17T06:35:01.518Z,23.09
2022-08-17T06:37:48.929Z,23.06
2022-08-17T06:40:46.259Z,23.15
2022-08-17T06:43:28.402Z,23.29
2022-08-17T06:46:04.511Z,23.72
2022-08-17T06:48:41.115Z,23.43
2022-08-17T06:51:19.957Z,23.76
2022-08-17T06:53:54.519Z,23.93
2022-08-17T06:56:54.605Z,24.00
2022-08-17T06:59:55.724Z,24.18
2022-08-17T07:02:51.526Z,24.51
2022-08-17T07:05:25.798Z,24.54
2022-08-17T07:08:04.482Z,24.48
2022-08-17T07:10:48.426Z,24.51
2022-08-17T07:13:43.478Z,24.47
2022-08-17T07:16:23.925Z,24.45
2022-08-17T07:18:57.508Z,24.68
2022-08-17T07:21:38.210Z,24.97
2022-08-17T07:24:29.480Z,25.15
2022-08-17T07:27:08.420Z,25.24
2022-08-17T07:29:41.639Z,25.34
2022-08-17T07:32:13.712Z,25.29
2022-08-17T07:35:05.425Z,25.18
2022-08-17T07:37:37.322Z,25.33
2022-08-17T07:40:23.871Z,25.39
2022-08-17T07:43:23.626Z,25.46
2022-08-17T07:46:12.989Z,25.71
2022-08-17T07:48:43.706Z,25.63
2022-08-17T07:51:24.993Z,25.44
2022-08-17T07:53:54.405Z,25.59
2022-08-17T07:56:51.189Z,25.71
2022-08-17T07:59:24.209Z,25.85
2022-08-17T08:02:08.198Z,25.74
2022-08-17T08:05:00.534Z,25.78
2022-08-17T08:07:38.852Z,25.69
2022-08-17T08:10:12.049Z,25.82
2022-08-17T08:12:44.804Z,26.00
2022-08-17T08:15:21.832Z,25.74
2022-08-17T08:17:56.064Z,26.12
2022-08-17T08:20:50.987Z,26.21
2022-08-17T08:23:37.114Z,26.00
2022-08-17T08:26:20.549Z,26.16
2022-08-17T08:28:59.325Z,26.24
2022-08-17T08:31:42.399Z,26.28
2022-08-17T08:34:44.527Z,26.38
2022-08-17T08:37:33.712Z,26.19
2022-08-17T08:40:19.423Z,26.46
2022-08-17T08:43:02.460Z,26.43
2022-08-17T08:45:40.181Z,26.49
2022-08-17T08:48:53.282Z,26.46
2022-08-17T08:51:21.352Z,26.63
2022-08-17T08:53:59.994Z,26.24
2022-08-17T08:56:38.328Z,26.03
2022-08-17T08:59:17.789Z,26.28
2022-08-17T09:02:00.036Z,26.24
2022-08-17T09:05:10.557Z,26.09
2022-08-17T09:07:40.158Z,25.94
2022-08-17T09:10:17.935Z,25.54
2022-08-17T09:12:57.114Z,25.72
2022-08-17T09:15:28.338Z,25.74
2022-08-17T09:18:59.982Z,25.76
2022-08-17T09:21:01.036Z,25.62
2022-08-17T09:23:34.984Z,25.66
2022-08-17T09:26:11.771Z,25.55
2022-08-17T09:28:46.229Z,25.55
2022-08-17T09:31:21.443Z,25.65
2022-08-17T09:33:51.450Z,25.65
2022-08-17T09:36:32.238Z,25.50
2022-08-17T09:39:04.904Z,25.69
2022-08-17T09:41:48.727Z,25.57
2022-08-17T09:44:28.841Z,25.43
2022-08-17T09:47:06.787Z,25.26
2022-08-17T09:49:44.638Z,25.38
2022-08-17T09:52:23.435Z,25.35
2022-08-17T09:54:59.678Z,25.42
2022-08-17T09:57:45.004Z,25.28
2022-08-17T10:00:23.909Z,25.37
2022-08-17T10:03:28.423Z,25.31
2022-08-17T10:06:09.136Z,25.38
2022-08-17T10:08:47.169Z,25.33
2022-08-17T10:11:50.302Z,25.16
2022-08-17T10:14:37.824Z,25.24
2022-08-17T10:17:23.083Z,25.17
2022-08-17T10:20:02.077Z,25.24
2022-08-17T10:22:55.661Z,25.18
2022-08-17T10:25:54.698Z,25.16
2022-08-17T10:28:29.688Z,25.22
2022-08-17T10:31:32.976Z,25.34
2022-08-17T10:34:06.600Z,25.14
2022-08-17T10:36:43.460Z,25.24
2022-08-17T10:39:23.855Z,25.30
2022-08-17T10:41:58.925Z,25.28
2022-08-17T10:44:49.723Z,25.24
2022-08-17T10:47:20.788Z,25.22
2022-08-17T10:49:54.420Z,25.32
2022-08-17T10:52:50.268Z,25.21
2022-08-17T10:55:20.955Z,25.39
2022-08-17T10:57:55.396Z,25.64
2022-08-17T11:01:11.631Z,25.69
2022-08-17T11:03:55.018Z,25.91
2022-08-17T11:06:42.727Z,26.00
2022-08-17T11:09:35.223Z,25.98
2022-08-17T11:12:25.841Z,26.13
2022-08-17T11:15:11.385Z,26.14
2022-08-17T11:18:05.098Z,26.19
2022-08-17T11:21:07.773Z,26.10
2022-08-17T11:24:19.782Z,26.19
2022-08-17T11:27:04.672Z,25.88
2022-08-17T11:29:40.577Z,25.89
2022-08-17T11:32:13.678Z,26.18
2022-08-17T11:34:59.852Z,25.65
2022-08-17T11:37:41.592Z,26.09
2022-08-17T11:40:47.326Z,26.05
2022-08-17T11:43:29.698Z,26.59
2022-08-17T11:46:13.009Z,27.13
2022-08-17T11:49:07.315Z,27.05
2022-08-17T11:51:58.623Z,27.07
2022-08-17T11:54:46.204Z,27.47
2022-08-17T11:58:02.647Z,27.80
2022-08-17T12:00:58.878Z,27.97
2022-08-17T12:03:54.671Z,28.03
2022-08-17T12:06:46.182Z,27.26
2022-08-17T12:09:20.656Z,27.41
2022-08-17T12:12:13.287Z,27.13
2022-08-17T12:15:09.572Z,27.05
2022-08-17T12:17:40.767Z,27.00
2022-08-17T12:20:17.819Z,27.09
2022-08-17T12:22:56.667Z,27.57
2022-08-17T12:25:33.226Z,27.98
2022-08-17T12:28:06.895Z,28.66
2022-08-17T12:30:38.082Z,28.92
2022-08-17T12:33:27.820Z,29.17
2022-08-17T12:36:07.328Z,28.28
2022-08-17T12:38:39.497Z,28.66
2022-08-17T12:41:23.602Z,29.21
2022-08-17T12:44:02.457Z,29.90
2022-08-17T12:46:33.802Z,29.78
2022-08-17T12:49:35.555Z,30.26
2022-08-17T12:52:13.757Z,29.96
2022-08-17T12:54:52.532Z,29.32
2022-08-17T12:57:25.844Z,29.75
2022-08-17T13:00:01.054Z,29.80
2022-08-17T13:02:41.736Z,29.62
2022-08-17T13:05:19.267Z,30.27
2022-08-17T13:07:49.319Z,29.63
2022-08-17T13:10:31.622Z,30.22
2022-08-17T13:13:05.301Z,30.26
2022-08-17T13:15:44.341Z,30.73
2022-08-17T13:18:49.648Z,30.81
2022-08-17T13:21:27.987Z,29.37
2022-08-17T13:24:06.197Z,29.63
2022-08-17T13:26:37.522Z,29.49
2022-08-17T13:29:10.227Z,29.62
2022-08-17T13:31:51.956Z,29.78
2022-08-17T13:34:59.622Z,29.62
2022-08-17T13:37:36.504Z,29.34
2022-08-17T13:40:31.479Z,29.36
2022-08-17T13:43:02.559Z,29.11
2022-08-17T13:45:51.153Z,29.27
2022-08-17T13:48:29.507Z,29.30
2022-08-17T13:51:26.011Z,29.53
2022-08-17T13:54:34.914Z,29.08
2022-08-17T13:57:07.874Z,29.39
2022-08-17T13:59:54.240Z,29.55
2022-08-17T14:02:27.587Z,28.50
2022-08-17T14:04:58.759Z,29.47
2022-08-17T14:07:37.668Z,29.98
2022-08-17T14:10:13.843Z,30.20
2022-08-17T14:12:44.976Z,30.43
2022-08-17T14:15:14.784Z,29.97
2022-08-17T14:17:43.418Z,30.34
2022-08-17T14:20:14.896Z,30.49
2022-08-17T14:22:46.612Z,30.81
2022-08-17T14:25:16.768Z,30.30
2022-08-17T14:27:52.751Z,30.17
2022-08-17T14:30:25.617Z,30.21
2022-08-17T14:32:58.338Z,30.72
2022-08-17T14:35:28.150Z,30.66
2022-08-17T14:37:57.810Z,30.64
2022-08-17T14:40:28.405Z,30.56
2022-08-17T14:43:01.051Z,30.39
2022-08-17T14:45:32.981Z,30.56
2022-08-17T14:48:04.337Z,30.66
2022-08-17T14:50:35.254Z,30.59
2022-08-17T14:53:04.692Z,30.81
2022-08-17T14:55:33.380Z,30.53
2022-08-17T14:58:04.722Z,30.52
2022-08-17T15:00:34.522Z,30.38
2022-08-17T15:03:03.743Z,30.37
2022-08-17T15:05:34.581Z,30.33
2022-08-17T15:08:05.127Z,30.24
2022-08-17T15:10:34.370Z,30.28
2022-08-17T15:13:05.146Z,30.94
2022-08-17T15:15:42.273Z,31.05
2022-08-17T15:18:10.952Z,31.24
2022-08-17T15:20:39.789Z,31.01
2022-08-17T15:23:10.354Z,29.95
2022-08-17T15:25:38.676Z,30.92
2022-08-17T15:28:09.011Z,31.31
2022-08-17T15:30:37.425Z,30.98
2022-08-17T15:33:06.011Z,31.76
2022-08-17T15:35:35.625Z,31.86
2022-08-17T15:38:11.643Z,31.13
2022-08-17T15:40:45.025Z,31.42
2022-08-17T15:43:22.058Z,31.39
2022-08-17T15:46:00.583Z,31.48
2022-08-17T15:48:43.277Z,31.59
2022-08-17T15:51:14.489Z,31.05
2022-08-17T15:53:44.622Z,31.23
2022-08-17T15:56:13.812Z,31.37
2022-08-17T15:58:44.961Z,31.83
2022-08-17T16:01:18.332Z,31.78
2022-08-17T16:04:06.764Z,30.78
2022-08-17T16:06:36.036Z,31.48
2022-08-17T16:09:05.550Z,31.86
2022-08-17T16:11:34.304Z,31.00
2022-08-17T16:14:05.126Z,30.72
2022-08-17T16:16:33.833Z,31.03
2022-08-17T16:19:03.225Z,31.32
2022-08-17T16:21:42.544Z,31.80
2022-08-17T16:24:13.174Z,32.22
2022-08-17T16:26:43.349Z,32.14
2022-08-17T16:29:13.819Z,31.92
2022-08-17T16:31:42.573Z,32.13
2022-08-17T16:34:17.626Z,32.17
2022-08-17T16:36:55.043Z,32.16
2022-08-17T16:39:24.454Z,32.38
2022-08-17T16:41:55.383Z,32.79
2022-08-17T16:44:26.073Z,32.49
2022-08-17T16:46:54.918Z,32.34
2022-08-17T16:49:35.612Z,32.35
2022-08-17T16:52:06.300Z,31.91
2022-08-17T16:54:35.756Z,32.09
2022-08-17T16:57:05.578Z,31.90
2022-08-17T16:59:41.099Z,32.39
2022-08-17T17:02:15.901Z,32.32
2022-08-17T17:04:53.497Z,32.54
2022-08-17T17:07:39.077Z,32.65
2022-08-17T17:10:12.430Z,32.21
2022-08-17T17:13:01.886Z,32.08
2022-08-17T17:15:54.439Z,32.68
2022-08-17T17:18:32.320Z,32.65
2022-08-17T17:21:02.339Z,32.77
2022-08-17T17:23:44.715Z,32.44
2022-08-17T17:26:55.679Z,32.62
2022-08-17T17:29:48.648Z,32.11
2022-08-17T17:32:23.355Z,31.52
2022-08-17T17:35:00.979Z,31.37
2022-08-17T17:37:39.356Z,31.15
2022-08-17T17:40:15.639Z,31.20
2022-08-17T17:42:47.254Z,31.08
2022-08-17T17:45:21.849Z,30.65
2022-08-17T17:47:52.621Z,30.45
2022-08-17T17:50:28.177Z,30.70
2022-08-17T17:53:04.047Z,30.49
2022-08-17T17:55:48.206Z,30.42
2022-08-17T17:58:33.752Z,30.27
2022-08-17T18:01:20.415Z,30.32
2022-08-17T18:04:20.651Z,30.09
2022-08-17T18:07:01.858Z,30.06
2022-08-17T18:10:01.648Z,30.22
2022-08-17T18:12:44.597Z,30.47
2022-08-17T18:15:24.416Z,30.20
2022-08-17T18:18:28.832Z,30.37
2022-08-17T18:21:05.965Z,30.20
2022-08-17T18:23:35.121Z,29.96
2022-08-17T18:26:03.802Z,29.87
2022-08-17T18:28:35.822Z,29.71
2022-08-17T18:31:09.162Z,29.60
2022-08-17T18:33:40.878Z,29.49
2022-08-17T18:36:11.716Z,29.55
2022-08-17T18:38:45.655Z,29.33
2022-08-17T18:41:23.972Z,29.28
2022-08-17T18:44:02.406Z,29.03
2022-08-17T18:46:35.179Z,28.95
2022-08-17T18:49:07.023Z,28.78
2022-08-17T18:51:43.149Z,28.76
2022-08-17T18:54:30.566Z,28.91
2022-08-17T18:57:04.974Z,28.88
2022-08-17T18:59:41.960Z,28.67
2022-08-17T19:02:39.041Z,28.42
2022-08-17T19:05:26.951Z,28.14
2022-08-17T19:08:18.693Z,28.16
2022-08-17T19:10:50.095Z,28.16
2022-08-17T19:13:24.312Z,27.87
2022-08-17T19:16:11.566Z,27.94
2022-08-17T19:18:47.490Z,27.62
2022-08-17T19:21:21.713Z,27.36
2022-08-17T19:23:58.906Z,27.33
2022-08-17T19:26:53.828Z,27.22
2022-08-17T19:29:23.853Z,27.15
2022-08-17T19:31:58.962Z,27.14
2022-08-17T19:34:34.559Z,27.23
2022-08-17T19:37:11.539Z,27.22
2022-08-17T19:39:54.822Z,27.37
2022-08-17T19:42:36.197Z,27.19
2022-08-17T19:45:14.838Z,26.91
2022-08-17T19:47:56.057Z,26.74
2022-08-17T19:50:38.583Z,26.64
2022-08-17T19:53:19.882Z,26.68
2022-08-17T19:55:57.192Z,26.55
2022-08-17T19:58:52.794Z,26.57
2022-08-17T20:01:34.528Z,26.78
2022-08-17T20:04:09.570Z,26.51
2022-08-17T20:06:44.358Z,26.55
2022-08-17T20:09:20.680Z,26.58
2022-08-17T20:11:56.426Z,26.55
2022-08-17T20:14:55.292Z,26.36
2022-08-17T20:17:28.681Z,26.31
2022-08-17T20:20:06.404Z,26.16
2022-08-17T20:22:49.717Z,26.25
2022-08-17T20:25:30.900Z,26.32
2022-08-17T20:28:08.121Z,26.25
2022-08-17T20:30:42.171Z,26.12
2022-08-17T20:33:28.568Z,26.15
2022-08-17T20:36:13.366Z,25.96
2022-08-17T20:38:47.273Z,25.49
2022-08-17T20:41:20.990Z,25.36
2022-08-17T20:44:08.513Z,25.34
2022-08-17T20:47:03.851Z,25.49
2022-08-17T20:49:48.482Z,25.45
2022-08-17T20:52:33.583Z,25.37
2022-08-17T20:55:05.913Z,25.19
2022-08-17T20:57:49.221Z,25.12
2022-08-17T21:00:46.172Z,25.01
2022-08-17T21:03:50.542Z,25.13
2022-08-17T21:06:23.246Z,25.16
2022-08-17T21:08:59.032Z,25.13
2022-08-17T21:12:02.548Z,25.15
2022-08-17T21:14:43.971Z,24.91
2022-08-17T21:17:51.877Z,24.72
2022-08-17T21:20:40.704Z,24.73
2022-08-17T21:24:04.441Z,24.48
2022-08-17T21:26:50.687Z,24.54
2022-08-17T21:29:31.396Z,24.36
2022-08-17T21:32:24.208Z,24.36
2022-08-17T21:35:31.621Z,23.93
2022-08-17T21:38:17.416Z,24.01
2022-08-17T21:40:48.752Z,23.96
2022-08-17T21:43:24.698Z,23.99
2022-08-17T21:45:59.411Z,24.07
2022-08-17T21:48:29.053Z,24.12
2022-08-17T21:51:05.122Z,23.79
2022-08-17T21:53:41.981Z,23.85
2022-08-17T21:56:13.251Z,23.80
2022-08-17T21:58:47.905Z,23.85
2022-08-17T22:01:24.166Z,23.79
2022-08-17T22:03:59.265Z,23.84
2022-08-17T22:06:31.884Z,23.82
2022-08-17T22:09:06.221Z,23.88
2022-08-17T22:11:53.417Z,23.75
2022-08-17T22:14:23.767Z,23.74
2022-08-17T22:17:08.680Z,23.61
2022-08-17T22:19:38.883Z,23.65
2022-08-17T22:22:12.731Z,23.63
2022-08-17T22:24:43.290Z,23.55
2022-08-17T22:27:19.044Z,23.48
2022-08-17T22:29:57.252Z,23.61
2022-08-17T22:32:42.882Z,23.51
2022-08-17T22:35:28.772Z,23.48
2022-08-17T22:37:57.673Z,23.53
2022-08-17T22:40:30.609Z,23.20
2022-08-17T22:43:01.685Z,23.23
2022-08-17T22:45:31.351Z,23.09
2022-08-17T22:48:02.686Z,23.15
2022-08-17T22:50:33.793Z,22.96
2022-08-17T22:53:21.705Z,22.95
2022-08-17T22:56:11.440Z,22.93
2022-08-17T22:59:01.907Z,22.98
2022-08-17T23:01:33.446Z,22.88
2022-08-17T23:04:09.269Z,22.91
2022-08-17T23:06:39.485Z,23.10
2022-08-17T23:09:08.975Z,23.17
2022-08-17T23:11:48.651Z,23.28
2022-08-17T23:14:20.114Z,23.49
2022-08-17T23:16:51.319Z,23.48
2022-08-17T23:19:22.569Z,23.46
2022-08-17T23:21:51.225Z,23.45
2022-08-17T23:24:26.963Z,23.46
2022-08-17T23:26:59.240Z,23.55
2022-08-17T23:29:29.810Z,23.49
2022-08-17T23:32:02.015Z,23.48
2022-08-17T23:34:30.543Z,23.36
2022-08-17T23:37:02.439Z,23.10
2022-08-17T23:39:30.839Z,23.03
2022-08-17T23:42:03.892Z,23.03
2022-08-17T23:44:33.254Z,23.16
2022-08-17T23:47:03.839Z,23.21
2022-08-17T23:49:33.253Z,23.28
2022-08-17T23:52:03.793Z,23.28
2022-08-17T23:54:37.992Z,23.39
2022-08-17T23:57:09.629Z,23.39
2022-08-17T23:59:38.198Z,23.40
